Time;durP1;ratioP1;P1;durP2;ratioP2;P2;SDS_P1;SDS_P2;PMS_P1;PMS_P2;Temp;Humidity;BMP_temperature;BMP_pressure;BME280_temperature;BME280_humidity;BME280_pressure;Samples;Min_cycle;Max_cycle;Signal;HPM_P1;HPM_P2
2023/10/01 00:01:36;;;;;;;21.88;7.30;;;;;;;;;;5034428;28;20928;-74
2023/10/01 00:04:06;;;;;;;25.45;7.10;;;;;;;;;;5035087;28;20482;-73
2023/10/01 00:06:34;;;;;;;24.50;7.32;;;;;;;;;;5034387;28;20407;-75
2023/10/01 00:09:01;;;;;;;25.10;7.30;;;;;;;;;;5033397;28;20426;-74
2023/10/01 00:11:30;;;;;;;21.85;7.15;;;;;;;;;;5032895;28;20480;-74
2023/10/01 00:13:57;;;;;;;21.77;7.45;;;;;;;;;;5038440;28;20994;-72
2023/10/01 00:16:23;;;;;;;24.40;7.25;;;;;;;;;;5033221;28;20446;-72
2023/10/01 00:18:50;;;;;;;27.30;7.50;;;;;;;;;;5034374;28;20403;-73
2023/10/01 00:21:17;;;;;;;23.95;7.30;;;;;;;;;;5034667;28;20414;-75
2023/10/01 00:23:44;;;;;;;23.02;7.47;;;;;;;;;;5046664;28;20900;-74
2023/10/01 00:26:11;;;;;;;25.08;7.47;;;;;;;;;;5034339;28;20884;-75
2023/10/01 00:28:42;;;;;;;24.80;7.40;;;;;;;;;;5029760;28;20411;-75
2023/10/01 00:31:09;;;;;;;24.77;6.75;;;;;;;;;;5031385;28;20913;-74
2023/10/01 00:33:35;;;;;;;27.25;7.93;;;;;;;;;;5043277;28;20829;-73
2023/10/01 00:36:03;;;;;;;23.40;7.35;;;;;;;;;;5034125;28;21204;-75
2023/10/01 00:38:29;;;;;;;23.27;7.70;;;;;;;;;;5037160;28;20407;-74
2023/10/01 00:40:57;;;;;;;24.63;7.50;;;;;;;;;;5021128;28;20416;-75
2023/10/01 00:43:25;;;;;;;23.23;7.27;;;;;;;;;;5032758;28;20410;-74
2023/10/01 00:45:53;;;;;;;25.42;7.82;;;;;;;;;;5037289;28;20466;-73
2023/10/01 00:48:22;;;;;;;21.38;6.80;;;;;;;;;;5031174;28;20493;-74
2023/10/01 00:50:49;;;;;;;23.57;7.03;;;;;;;;;;5036768;28;20423;-72
2023/10/01 00:53:16;;;;;;;23.90;7.70;;;;;;;;;;5047172;28;20491;-75
2023/10/01 00:55:42;;;;;;;23.00;7.05;;;;;;;;;;5037742;28;20828;-75
2023/10/01 00:58:10;;;;;;;23.85;7.07;;;;;;;;;;5031584;28;20415;-74
2023/10/01 01:00:37;;;;;;;22.40;6.82;;;;;;;;;;5036066;28;20398;-73
2023/10/01 01:03:07;;;;;;;21.58;6.50;;;;;;;;;;5034018;28;20419;-72
2023/10/01 01:05:35;;;;;;;22.38;7.43;;;;;;;;;;5029366;28;20426;-72
2023/10/01 01:08:04;;;;;;;22.80;7.43;;;;;;;;;;5036292;28;20417;-73
2023/10/01 01:10:39;;;;;;;25.00;7.13;;;;;;;;;;5045590;28;20424;-74
2023/10/01 01:13:06;;;;;;;24.90;7.30;;;;;;;;;;5031906;28;20756;-74
2023/10/01 01:15:34;;;;;;;20.92;6.78;;;;;;;;;;5034035;28;20403;-73
2023/10/01 01:18:06;;;;;;;22.35;6.75;;;;;;;;;;5041254;28;20450;-72
2023/10/01 01:20:37;;;;;;;22.42;7.55;;;;;;;;;;5038990;28;21037;-73
2023/10/01 01:23:06;;;;;;;23.65;6.47;;;;;;;;;;5030468;28;20488;-75
2023/10/01 01:25:33;;;;;;;27.23;7.90;;;;;;;;;;5032379;28;20472;-72
2023/10/01 01:28:00;;;;;;;24.30;6.90;;;;;;;;;;5039451;28;20470;-73
2023/10/01 01:30:29;;;;;;;24.95;7.40;;;;;;;;;;5032232;28;20437;-75
2023/10/01 01:32:57;;;;;;;25.30;7.90;;;;;;;;;;5033467;28;20478;-74
2023/10/01 01:35:30;;;;;;;25.25;7.03;;;;;;;;;;5042380;28;20462;-73
2023/10/01 01:38:00;;;;;;;23.23;6.55;;;;;;;;;;5032715;28;20415;-74
2023/10/01 01:40:32;;;;;;;22.05;7.32;;;;;;;;;;5032017;28;20423;-74
2023/10/01 01:43:15;;;;;;;24.67;7.82;;;;;;;;;;5022763;28;20419;-73
2023/10/01 01:45:44;;;;;;;23.83;6.93;;;;;;;;;;5032213;28;21118;-73
2023/10/01 01:51:08;;;;;;;24.17;6.33;;;;;;;;;;5017050;28;20520;-81
2023/10/01 01:53:35;;;;;;;22.40;5.80;;;;;;;;;;5031525;28;20453;-74
2023/10/01 01:56:08;;;;;;;21.73;5.90;;;;;;;;;;5031777;28;20510;-73
2023/10/01 01:58:36;;;;;;;21.05;6.10;;;;;;;;;;5031060;28;20418;-74
2023/10/01 02:01:17;;;;;;;24.08;6.55;;;;;;;;;;5030995;28;20777;-72
2023/10/01 02:03:46;;;;;;;21.27;6.03;;;;;;;;;;5030693;28;20399;-73
2023/10/01 02:06:14;;;;;;;21.25;6.65;;;;;;;;;;5031865;28;20403;-75
2023/10/01 02:08:48;;;;;;;21.73;5.80;;;;;;;;;;5033180;28;20418;-74
2023/10/01 02:11:18;;;;;;;22.00;6.38;;;;;;;;;;5032319;28;20796;-73
2023/10/01 02:13:46;;;;;;;22.77;7.03;;;;;;;;;;5035498;28;20422;-73
2023/10/01 02:16:34;;;;;;;22.90;6.47;;;;;;;;;;5030940;28;20447;-75
2023/10/01 02:19:11;;;;;;;22.13;6.88;;;;;;;;;;5031203;28;20411;-72
2023/10/01 02:21:42;;;;;;;23.35;7.18;;;;;;;;;;5047363;28;20404;-75
2023/10/01 02:24:22;;;;;;;23.02;7.22;;;;;;;;;;5046131;28;20442;-74
2023/10/01 02:26:53;;;;;;;22.70;5.90;;;;;;;;;;5036211;28;20413;-75
2023/10/01 02:29:24;;;;;;;23.25;6.35;;;;;;;;;;5012993;28;20409;-75
2023/10/01 02:31:56;;;;;;;23.10;6.75;;;;;;;;;;5032121;28;20426;-74
2023/10/01 02:34:23;;;;;;;22.02;7.05;;;;;;;;;;5032130;28;20407;-73
2023/10/01 02:36:50;;;;;;;22.58;6.10;;;;;;;;;;5036551;28;20564;-73
2023/10/01 02:39:28;;;;;;;23.75;6.32;;;;;;;;;;5031172;28;20407;-74
2023/10/01 02:44:32;;;;;;;21.15;6.20;;;;;;;;;;5029756;28;20419;-74
2023/10/01 02:47:03;;;;;;;25.33;6.57;;;;;;;;;;5046388;28;20417;-73
2023/10/01 02:49:32;;;;;;;27.15;6.88;;;;;;;;;;5044071;28;20472;-73
2023/10/01 02:51:59;;;;;;;28.92;7.25;;;;;;;;;;4997884;28;20411;-75
2023/10/01 02:54:28;;;;;;;22.70;6.90;;;;;;;;;;5037932;28;20415;-75
2023/10/01 02:57:15;;;;;;;23.38;5.78;;;;;;;;;;5046911;28;20804;-75
2023/10/01 03:02:32;;;;;;;22.38;5.90;;;;;;;;;;5027575;28;20418;-73
2023/10/01 03:05:16;;;;;;;24.10;6.32;;;;;;;;;;5039345;28;20403;-73
2023/10/01 03:07:45;;;;;;;20.90;6.00;;;;;;;;;;5028313;28;20489;-72
2023/10/01 03:12:53;;;;;;;22.53;6.00;;;;;;;;;;5031930;28;20470;-74
2023/10/01 03:15:24;;;;;;;27.30;7.05;;;;;;;;;;5035564;28;20407;-73
2023/10/01 03:17:57;;;;;;;25.75;6.90;;;;;;;;;;5020830;28;20791;-76
2023/10/01 03:23:05;;;;;;;22.63;7.00;;;;;;;;;;5030754;28;20410;-74
2023/10/01 03:25:40;;;;;;;22.45;6.90;;;;;;;;;;5031211;28;20458;-74
2023/10/01 03:28:11;;;;;;;23.58;6.70;;;;;;;;;;5031497;28;20418;-74
2023/10/01 03:30:45;;;;;;;21.33;6.00;;;;;;;;;;5031153;28;20472;-74
2023/10/01 03:33:15;;;;;;;22.67;7.10;;;;;;;;;;5030426;28;20402;-74
2023/10/01 03:35:48;;;;;;;22.98;7.05;;;;;;;;;;5029156;28;20410;-75
2023/10/01 03:38:15;;;;;;;25.45;6.50;;;;;;;;;;5015997;28;20442;-73
2023/10/01 03:40:58;;;;;;;21.27;6.00;;;;;;;;;;5027521;28;20405;-71
2023/10/01 03:43:37;;;;;;;21.95;6.55;;;;;;;;;;5045498;28;20404;-73
2023/10/01 03:46:19;;;;;;;21.90;6.00;;;;;;;;;;5029688;28;20399;-73
2023/10/01 03:48:58;;;;;;;23.08;5.80;;;;;;;;;;5029101;28;20399;-73
2023/10/01 03:51:52;;;;;;;22.52;6.75;;;;;;;;;;5030710;28;20473;-74
2023/10/01 03:54:19;;;;;;;23.73;6.53;;;;;;;;;;5029501;28;20414;-74
2023/10/01 03:56:56;;;;;;;22.27;6.60;;;;;;;;;;5029100;28;20443;-73
2023/10/01 03:59:24;;;;;;;21.65;6.25;;;;;;;;;;5030536;28;20837;-74
2023/10/01 04:02:02;;;;;;;23.20;5.83;;;;;;;;;;5029587;28;20427;-74
2023/10/01 04:04:56;;;;;;;23.63;6.57;;;;;;;;;;5029282;28;20888;-73
2023/10/01 04:07:26;;;;;;;23.58;6.32;;;;;;;;;;5028822;28;20502;-74
2023/10/01 04:09:52;;;;;;;21.25;6.10;;;;;;;;;;5030340;28;20434;-74
2023/10/01 04:12:19;;;;;;;22.67;6.28;;;;;;;;;;5030692;28;20418;-73
2023/10/01 04:14:49;;;;;;;22.77;6.27;;;;;;;;;;5034190;28;20411;-74
2023/10/01 04:17:18;;;;;;;20.02;5.63;;;;;;;;;;5047071;28;20478;-75
2023/10/01 04:19:48;;;;;;;24.52;6.10;;;;;;;;;;5036443;28;20461;-74
2023/10/01 04:22:17;;;;;;;21.13;5.78;;;;;;;;;;5033411;28;20429;-74
2023/10/01 04:25:00;;;;;;;24.77;7.07;;;;;;;;;;5031768;28;20465;-73
2023/10/01 04:27:30;;;;;;;28.15;6.38;;;;;;;;;;5032579;28;20442;-75
2023/10/01 04:30:00;;;;;;;21.42;5.80;;;;;;;;;;5033396;28;20769;-74
2023/10/01 04:32:28;;;;;;;24.35;6.63;;;;;;;;;;5034425;28;20461;-74
2023/10/01 04:34:56;;;;;;;23.13;5.90;;;;;;;;;;5031046;28;20413;-73
2023/10/01 04:37:36;;;;;;;22.00;6.38;;;;;;;;;;5031112;28;20402;-74
2023/10/01 04:40:31;;;;;;;20.48;6.03;;;;;;;;;;5033904;28;20426;-74
2023/10/01 04:42:53;;;;;;;22.52;6.30;;;;;;;;;;5032605;28;20907;-73
2023/10/01 04:45:23;;;;;;;21.50;5.93;;;;;;;;;;5033905;28;20430;-72
2023/10/01 04:47:55;;;;;;;22.63;5.72;;;;;;;;;;5032656;28;20415;-74
2023/10/01 04:50:27;;;;;;;23.70;6.28;;;;;;;;;;5037712;28;20450;-74
2023/10/01 04:52:58;;;;;;;21.70;6.30;;;;;;;;;;5033559;28;20403;-76
2023/10/01 04:55:26;;;;;;;19.80;5.25;;;;;;;;;;5032662;28;20879;-73
2023/10/01 04:57:52;;;;;;;22.73;6.00;;;;;;;;;;5048032;28;20481;-74
2023/10/01 05:00:22;;;;;;;20.83;5.93;;;;;;;;;;5034100;28;20407;-73
2023/10/01 05:02:49;;;;;;;25.58;5.50;;;;;;;;;;5033984;28;20490;-73
2023/10/01 05:05:25;;;;;;;22.50;6.13;;;;;;;;;;5032829;28;20465;-73
2023/10/01 05:07:54;;;;;;;27.88;6.35;;;;;;;;;;5047878;28;20415;-74
2023/10/01 05:10:21;;;;;;;22.83;5.83;;;;;;;;;;5018614;28;20421;-75
2023/10/01 05:12:54;;;;;;;21.00;5.75;;;;;;;;;;5033761;28;20442;-72
2023/10/01 05:15:25;;;;;;;19.83;5.40;;;;;;;;;;5033093;28;20415;-73
2023/10/01 05:17:55;;;;;;;22.48;5.72;;;;;;;;;;5033511;28;20407;-74
2023/10/01 05:20:25;;;;;;;23.30;6.70;;;;;;;;;;5033700;28;20846;-74
2023/10/01 05:22:54;;;;;;;22.00;6.00;;;;;;;;;;5031700;28;20419;-74
2023/10/01 05:25:21;;;;;;;20.75;6.35;;;;;;;;;;5038193;28;20427;-73
2023/10/01 05:27:48;;;;;;;21.63;6.00;;;;;;;;;;5033055;28;20749;-73
2023/10/01 05:33:13;;;;;;;23.15;6.30;;;;;;;;;;5021276;28;20483;-72
2023/10/01 05:35:44;;;;;;;22.95;5.47;;;;;;;;;;5032650;28;20438;-74
2023/10/01 05:38:14;;;;;;;21.40;5.80;;;;;;;;;;5031278;28;20399;-72
2023/10/01 05:40:44;;;;;;;21.75;6.70;;;;;;;;;;5038427;28;20403;-74
2023/10/01 05:43:13;;;;;;;22.92;5.85;;;;;;;;;;5039192;28;20411;-75
2023/10/01 05:45:41;;;;;;;21.77;5.90;;;;;;;;;;5032042;28;20417;-73
2023/10/01 05:48:10;;;;;;;24.88;6.38;;;;;;;;;;5038230;28;20410;-74
2023/10/01 05:50:38;;;;;;;21.67;6.00;;;;;;;;;;5032113;28;20501;-75
2023/10/01 05:53:09;;;;;;;18.67;5.55;;;;;;;;;;5031652;28;20497;-73
2023/10/01 05:55:37;;;;;;;21.70;6.05;;;;;;;;;;5031429;28;20469;-73
2023/10/01 05:58:13;;;;;;;23.48;5.57;;;;;;;;;;5031842;28;20408;-75
2023/10/01 06:00:45;;;;;;;22.40;6.40;;;;;;;;;;5031839;28;20448;-75
2023/10/01 06:03:15;;;;;;;21.13;6.22;;;;;;;;;;5039197;28;20434;-74
2023/10/01 06:05:57;;;;;;;22.58;5.65;;;;;;;;;;5031928;28;20415;-74
2023/10/01 06:08:26;;;;;;;23.40;5.88;;;;;;;;;;5030469;28;20415;-73
2023/10/01 06:11:05;;;;;;;25.17;5.88;;;;;;;;;;5020358;28;20458;-72
2023/10/01 06:13:35;;;;;;;26.10;6.40;;;;;;;;;;5046656;28;20407;-73
2023/10/01 06:16:15;;;;;;;22.73;6.40;;;;;;;;;;5031518;28;20418;-73
2023/10/01 06:18:49;;;;;;;22.17;6.00;;;;;;;;;;5031830;28;20407;-73
2023/10/01 06:21:17;;;;;;;23.70;6.30;;;;;;;;;;5037948;28;20399;-72
2023/10/01 06:23:52;;;;;;;21.90;5.63;;;;;;;;;;5029958;28;20934;-73
2023/10/01 06:26:19;;;;;;;21.03;5.43;;;;;;;;;;5016962;28;20414;-73
2023/10/01 06:28:47;;;;;;;22.80;5.20;;;;;;;;;;5030347;28;20502;-74
2023/10/01 06:31:16;;;;;;;21.57;5.67;;;;;;;;;;5044744;28;20431;-74
2023/10/01 06:33:46;;;;;;;20.83;5.53;;;;;;;;;;5037650;28;20415;-73
2023/10/01 06:36:15;;;;;;;19.73;4.97;;;;;;;;;;5030130;28;20506;-73
2023/10/01 06:38:44;;;;;;;19.73;5.30;;;;;;;;;;5033890;28;20933;-75
2023/10/01 06:41:13;;;;;;;20.10;4.97;;;;;;;;;;5029051;28;20504;-74
2023/10/01 06:43:44;;;;;;;21.10;5.00;;;;;;;;;;5032811;28;20411;-75
2023/10/01 06:46:13;;;;;;;22.27;5.10;;;;;;;;;;5027967;28;20435;-72
2023/10/01 06:48:40;;;;;;;18.70;4.60;;;;;;;;;;5030024;28;20472;-73
2023/10/01 06:51:07;;;;;;;19.80;5.00;;;;;;;;;;5028792;28;20424;-73
2023/10/01 06:53:45;;;;;;;19.88;4.90;;;;;;;;;;5031187;28;20910;-72
2023/10/01 06:56:17;;;;;;;20.27;4.83;;;;;;;;;;5031459;28;20444;-73
2023/10/01 07:01:42;;;;;;;21.40;4.90;;;;;;;;;;5030414;28;20438;-73
2023/10/01 07:04:09;;;;;;;21.42;4.30;;;;;;;;;;5036302;28;20836;-73
2023/10/01 07:06:36;;;;;;;21.05;5.00;;;;;;;;;;5030307;28;20422;-72
2023/10/01 07:09:02;;;;;;;22.05;4.75;;;;;;;;;;5048441;28;20418;-73
2023/10/01 07:11:31;;;;;;;20.00;4.80;;;;;;;;;;5033423;28;20910;-73
2023/10/01 07:13:58;;;;;;;18.80;4.10;;;;;;;;;;5035365;28;20446;-73
2023/10/01 07:16:39;;;;;;;19.88;4.50;;;;;;;;;;5023316;28;20454;-74
2023/10/01 07:19:11;;;;;;;20.73;4.28;;;;;;;;;;5028884;28;20411;-75
2023/10/01 07:21:41;;;;;;;21.10;4.57;;;;;;;;;;5028857;28;20407;-72
2023/10/01 07:24:10;;;;;;;19.20;4.07;;;;;;;;;;5036970;28;20498;-72
2023/10/01 07:26:41;;;;;;;20.83;4.80;;;;;;;;;;5029780;28;20407;-74
2023/10/01 07:29:08;;;;;;;20.77;4.53;;;;;;;;;;5027515;28;20427;-74
2023/10/01 07:31:38;;;;;;;19.67;4.22;;;;;;;;;;5030729;28;20423;-72
2023/10/01 07:34:14;;;;;;;19.98;4.80;;;;;;;;;;5034950;28;20993;-73
2023/10/01 07:36:43;;;;;;;21.50;4.90;;;;;;;;;;5028693;28;20413;-73
2023/10/01 07:39:12;;;;;;;19.35;3.95;;;;;;;;;;5029947;28;20547;-74
2023/10/01 07:41:44;;;;;;;19.50;4.07;;;;;;;;;;5030843;28;20548;-74
2023/10/01 07:44:11;;;;;;;19.88;4.20;;;;;;;;;;5029745;28;20407;-74
2023/10/01 07:46:38;;;;;;;20.75;4.35;;;;;;;;;;5032350;28;20415;-74
2023/10/01 07:49:05;;;;;;;18.42;4.40;;;;;;;;;;5031525;28;20409;-74
2023/10/01 07:51:40;;;;;;;20.13;4.20;;;;;;;;;;5034513;28;20500;-72
2023/10/01 07:54:12;;;;;;;20.85;4.65;;;;;;;;;;5021033;28;20416;-72
2023/10/01 07:56:48;;;;;;;19.85;4.10;;;;;;;;;;5038139;28;20871;-72
2023/10/01 08:00:00;;;;;;;20.42;4.22;;;;;;;;;;5033606;28;20407;-73
2023/10/01 08:07:16;;;;;;;21.00;4.40;;;;;;;;;;5034170;28;20410;-74
2023/10/01 08:09:46;;;;;;;19.45;4.28;;;;;;;;;;5033380;28;20859;-72
2023/10/01 08:12:14;;;;;;;19.95;3.88;;;;;;;;;;5034247;28;20430;-73
2023/10/01 08:14:41;;;;;;;19.10;4.03;;;;;;;;;;5033517;28;20494;-73
2023/10/01 08:17:08;;;;;;;20.90;4.30;;;;;;;;;;5033930;28;20446;-73
2023/10/01 08:19:44;;;;;;;19.55;4.90;;;;;;;;;;5038713;28;20454;-72
2023/10/01 08:22:15;;;;;;;20.30;4.43;;;;;;;;;;5032890;28;20421;-72
2023/10/01 08:24:45;;;;;;;19.98;4.10;;;;;;;;;;5034233;28;20490;-73
2023/10/01 08:27:12;;;;;;;18.48;3.95;;;;;;;;;;5029750;28;20501;-70
2023/10/01 08:32:38;;;;;;;19.13;4.03;;;;;;;;;;5031009;28;20562;-72
2023/10/01 08:35:08;;;;;;;19.73;4.32;;;;;;;;;;5019761;28;20439;-74
2023/10/01 08:37:38;;;;;;;21.98;4.65;;;;;;;;;;5038480;28;20410;-72
2023/10/01 08:40:13;;;;;;;19.15;4.05;;;;;;;;;;5032756;28;20398;-73
2023/10/01 08:42:44;;;;;;;19.90;4.90;;;;;;;;;;5033626;28;20410;-74
2023/10/01 08:45:17;;;;;;;20.00;4.60;;;;;;;;;;5033574;28;20414;-72
2023/10/01 08:47:47;;;;;;;19.65;4.88;;;;;;;;;;5031428;28;20498;-73
2023/10/01 08:50:27;;;;;;;20.50;4.90;;;;;;;;;;5031046;28;20473;-73
2023/10/01 08:52:55;;;;;;;21.65;4.18;;;;;;;;;;5033129;28;20837;-73
2023/10/01 08:55:23;;;;;;;19.20;4.17;;;;;;;;;;5031894;28;20760;-73
2023/10/01 08:57:53;;;;;;;20.98;4.40;;;;;;;;;;5030949;28;20476;-75
2023/10/01 09:00:21;;;;;;;21.38;4.20;;;;;;;;;;5032559;28;20792;-73
2023/10/01 09:02:50;;;;;;;19.70;3.60;;;;;;;;;;5033862;28;20410;-74
2023/10/01 09:05:23;;;;;;;19.67;3.60;;;;;;;;;;5033191;28;20502;-72
2023/10/01 09:08:14;;;;;;;22.05;4.72;;;;;;;;;;5031422;28;20537;-73
2023/10/01 09:10:47;;;;;;;21.53;4.73;;;;;;;;;;5033057;28;20406;-72
2023/10/01 09:13:20;;;;;;;21.20;4.30;;;;;;;;;;5045122;28;20429;-72
2023/10/01 09:15:54;;;;;;;20.50;4.80;;;;;;;;;;5033103;28;20414;-72
2023/10/01 09:18:24;;;;;;;22.67;5.28;;;;;;;;;;5033440;28;20406;-74
2023/10/01 09:21:09;;;;;;;21.05;4.68;;;;;;;;;;5032385;28;20411;-74
2023/10/01 09:23:54;;;;;;;20.40;4.40;;;;;;;;;;5030805;28;20797;-73
2023/10/01 09:26:55;;;;;;;20.00;4.40;;;;;;;;;;5049272;28;20405;-73
2023/10/01 09:29:23;;;;;;;21.80;4.13;;;;;;;;;;5032320;28;20448;-74
2023/10/01 09:31:52;;;;;;;21.88;4.55;;;;;;;;;;5012658;28;20478;-73
2023/10/01 09:34:31;;;;;;;21.00;4.75;;;;;;;;;;5018807;28;20495;-73
2023/10/01 09:37:00;;;;;;;20.58;4.90;;;;;;;;;;5032863;28;20880;-74
2023/10/01 09:39:38;;;;;;;23.35;5.10;;;;;;;;;;5030776;28;20502;-73
2023/10/01 09:42:22;;;;;;;22.63;5.20;;;;;;;;;;5031512;28;20509;-73
2023/10/01 09:44:50;;;;;;;20.13;4.43;;;;;;;;;;5046636;28;20414;-73
2023/10/01 09:47:22;;;;;;;20.15;4.80;;;;;;;;;;5037138;28;20403;-72
2023/10/01 09:49:51;;;;;;;20.13;4.05;;;;;;;;;;5032414;28;20430;-74
2023/10/01 09:52:27;;;;;;;18.55;4.60;;;;;;;;;;5031086;28;20422;-74
2023/10/01 09:54:57;;;;;;;20.42;4.25;;;;;;;;;;5038025;28;20415;-72
2023/10/01 09:57:24;;;;;;;25.30;4.82;;;;;;;;;;5027559;28;20453;-73
2023/10/01 09:59:51;;;;;;;21.30;5.13;;;;;;;;;;5036618;28;20819;-73
2023/10/01 10:02:27;;;;;;;19.92;4.38;;;;;;;;;;5032417;28;20825;-72
2023/10/01 10:04:54;;;;;;;21.30;4.47;;;;;;;;;;5029411;28;20406;-73
2023/10/01 10:07:24;;;;;;;18.97;4.20;;;;;;;;;;5031242;28;20407;-72
2023/10/01 10:09:54;;;;;;;19.27;4.57;;;;;;;;;;5031652;28;20411;-72
2023/10/01 10:12:30;;;;;;;20.13;4.22;;;;;;;;;;5030386;28;20423;-82
2023/10/01 10:14:56;;;;;;;20.35;4.60;;;;;;;;;;5028479;28;20403;-78
2023/10/01 10:17:38;;;;;;;21.27;4.20;;;;;;;;;;5031893;28;20414;-76
2023/10/01 10:20:16;;;;;;;21.00;4.65;;;;;;;;;;5031169;28;20418;-76
2023/10/01 10:23:04;;;;;;;19.30;3.92;;;;;;;;;;5031316;28;20406;-77
2023/10/01 10:25:30;;;;;;;20.58;5.10;;;;;;;;;;5028691;28;20394;-79
2023/10/01 10:27:57;;;;;;;20.77;3.90;;;;;;;;;;5038192;28;20510;-79
2023/10/01 10:30:27;;;;;;;20.55;4.28;;;;;;;;;;5032213;28;20489;-79
2023/10/01 10:33:13;;;;;;;19.80;4.00;;;;;;;;;;5029352;28;20423;-77
2023/10/01 10:35:46;;;;;;;18.75;3.83;;;;;;;;;;5031339;28;20399;-79
2023/10/01 10:38:28;;;;;;;20.13;4.28;;;;;;;;;;5031786;28;20457;-79
2023/10/01 10:41:07;;;;;;;18.80;4.40;;;;;;;;;;5031557;28;20498;-78
2023/10/01 10:43:34;;;;;;;20.50;4.67;;;;;;;;;;5030386;28;20399;-74
2023/10/01 10:46:02;;;;;;;19.30;4.40;;;;;;;;;;5018841;28;20497;-77
2023/10/01 10:48:59;;;;;;;19.35;4.40;;;;;;;;;;5035688;28;20834;-73
2023/10/01 10:51:48;;;;;;;20.10;4.35;;;;;;;;;;5012422;28;20427;-74
2023/10/01 10:54:30;;;;;;;20.45;4.13;;;;;;;;;;5044464;28;20466;-73
2023/10/01 10:56:58;;;;;;;22.25;4.30;;;;;;;;;;5019906;28;20945;-75
2023/10/01 10:59:28;;;;;;;20.38;4.63;;;;;;;;;;5031294;28;20876;-74
2023/10/01 11:01:56;;;;;;;22.13;4.90;;;;;;;;;;5030940;28;20415;-74
2023/10/01 11:04:30;;;;;;;19.95;4.50;;;;;;;;;;5030061;28;20458;-75
2023/10/01 11:07:02;;;;;;;20.42;4.20;;;;;;;;;;5029490;28;20430;-74
2023/10/01 11:09:31;;;;;;;20.08;4.25;;;;;;;;;;5028046;28;20460;-73
2023/10/01 11:12:02;;;;;;;19.67;4.40;;;;;;;;;;5031264;28;20904;-72
2023/10/01 11:14:29;;;;;;;20.90;4.53;;;;;;;;;;5035219;28;20415;-73
2023/10/01 11:16:56;;;;;;;20.55;4.30;;;;;;;;;;5035945;28;20455;-74
2023/10/01 11:19:25;;;;;;;18.55;4.60;;;;;;;;;;5029156;28;20419;-74
2023/10/01 11:21:57;;;;;;;21.38;4.50;;;;;;;;;;5028644;28;20430;-74
2023/10/01 11:24:29;;;;;;;20.73;5.03;;;;;;;;;;5036081;28;20403;-74
2023/10/01 11:27:14;;;;;;;20.90;5.43;;;;;;;;;;5031094;28;20421;-73
2023/10/01 11:29:42;;;;;;;22.47;4.90;;;;;;;;;;5024681;28;20508;-74
2023/10/01 11:32:16;;;;;;;21.52;4.82;;;;;;;;;;5029821;28;20942;-74
2023/10/01 11:34:43;;;;;;;21.48;5.30;;;;;;;;;;5031149;28;20406;-74
2023/10/01 11:37:14;;;;;;;20.10;4.80;;;;;;;;;;5028750;28;20621;-75
2023/10/01 11:39:49;;;;;;;18.42;4.30;;;;;;;;;;5031984;28;20407;-75
2023/10/01 11:42:26;;;;;;;21.80;5.40;;;;;;;;;;5034785;28;20472;-75
2023/10/01 11:44:52;;;;;;;23.20;5.17;;;;;;;;;;5011703;28;20415;-73
2023/10/01 11:47:31;;;;;;;23.73;4.95;;;;;;;;;;5031177;28;20445;-73
2023/10/01 11:50:07;;;;;;;22.00;5.28;;;;;;;;;;5030611;28;20525;-74
2023/10/01 11:52:35;;;;;;;20.40;4.60;;;;;;;;;;5028121;28;20407;-75
2023/10/01 11:55:18;;;;;;;22.20;5.10;;;;;;;;;;5030079;28;20442;-72
2023/10/01 11:57:51;;;;;;;21.65;4.60;;;;;;;;;;5022595;28;20419;-75
2023/10/01 12:00:52;;;;;;;20.85;4.50;;;;;;;;;;5031711;28;20407;-74
2023/10/01 12:03:10;;;;;;;22.83;4.53;;;;;;;;;;5030621;28;20510;-74
2023/10/01 12:05:42;;;;;;;21.30;5.13;;;;;;;;;;5029348;28;20804;-74
2023/10/01 12:08:18;;;;;;;19.83;4.77;;;;;;;;;;5038953;28;20824;-75
2023/10/01 12:10:51;;;;;;;21.35;5.05;;;;;;;;;;5029991;28;20534;-74
2023/10/01 12:13:20;;;;;;;20.65;4.35;;;;;;;;;;5031886;28;20430;-73
2023/10/01 12:15:53;;;;;;;21.35;4.63;;;;;;;;;;5018854;28;20885;-73
2023/10/01 12:18:19;;;;;;;21.08;4.53;;;;;;;;;;5025713;28;20403;-73
2023/10/01 12:20:54;;;;;;;20.73;4.70;;;;;;;;;;5030353;28;20418;-73
2023/10/01 12:23:22;;;;;;;22.75;4.78;;;;;;;;;;5030180;28;20493;-73
2023/10/01 12:26:00;;;;;;;20.33;4.50;;;;;;;;;;5030500;28;20442;-74
2023/10/01 12:28:27;;;;;;;20.70;4.70;;;;;;;;;;5014852;28;20406;-74
2023/10/01 12:30:58;;;;;;;21.75;4.85;;;;;;;;;;5030136;28;20411;-74
2023/10/01 12:33:38;;;;;;;22.80;4.90;;;;;;;;;;5032391;28;20517;-75
2023/10/01 12:36:11;;;;;;;21.27;4.95;;;;;;;;;;5033768;28;20464;-74
2023/10/01 12:38:38;;;;;;;21.90;5.45;;;;;;;;;;5033538;28;20858;-74
2023/10/01 12:41:06;;;;;;;20.33;5.28;;;;;;;;;;5032018;28;20407;-74
2023/10/01 12:43:42;;;;;;;21.35;5.95;;;;;;;;;;5030528;28;20465;-74
2023/10/01 12:46:09;;;;;;;22.00;5.20;;;;;;;;;;5032609;28;20422;-73
2023/10/01 12:48:37;;;;;;;20.93;5.30;;;;;;;;;;5045017;28;20484;-73
2023/10/01 12:51:07;;;;;;;22.80;5.00;;;;;;;;;;5032284;28;20787;-74
2023/10/01 12:53:34;;;;;;;22.60;5.40;;;;;;;;;;5032668;28;20505;-73
2023/10/01 12:56:06;;;;;;;21.67;5.03;;;;;;;;;;5032219;28;20407;-73
2023/10/01 12:58:36;;;;;;;22.88;5.88;;;;;;;;;;5030192;28;20413;-73
2023/10/01 13:01:03;;;;;;;21.00;5.10;;;;;;;;;;5037685;28;20613;-74
2023/10/01 13:03:30;;;;;;;19.90;4.87;;;;;;;;;;5033386;28;20457;-74
2023/10/01 13:06:05;;;;;;;22.35;6.15;;;;;;;;;;5038067;28;20429;-73
2023/10/01 13:08:34;;;;;;;22.20;5.50;;;;;;;;;;5033034;28;20438;-73
2023/10/01 13:11:00;;;;;;;21.60;5.70;;;;;;;;;;5034886;28;21220;-73
2023/10/01 13:13:35;;;;;;;24.08;5.10;;;;;;;;;;5033275;28;20910;-73
2023/10/01 13:16:02;;;;;;;21.73;5.43;;;;;;;;;;5031077;28;20532;-73
2023/10/01 13:18:29;;;;;;;22.27;4.90;;;;;;;;;;5030131;28;20530;-74
2023/10/01 13:23:25;;;;;;;23.13;5.78;;;;;;;;;;5033013;28;20896;-73
2023/10/01 13:26:05;;;;;;;21.25;6.20;;;;;;;;;;5030045;28;20505;-73
2023/10/01 13:28:46;;;;;;;21.58;5.10;;;;;;;;;;5032173;28;20411;-72
2023/10/01 13:34:48;;;;;;;20.87;5.03;;;;;;;;;;5032301;28;20423;-73
2023/10/01 14:09:54;;;;;;;22.08;5.15;;;;;;;;;;4994923;28;20454;-73
2023/10/01 14:15:21;;;;;;;23.60;5.80;;;;;;;;;;5031808;28;20451;-74
2023/10/01 14:17:52;;;;;;;21.00;4.85;;;;;;;;;;5030780;28;20415;-75
2023/10/01 14:20:37;;;;;;;22.13;4.90;;;;;;;;;;5030627;28;20438;-74
2023/10/01 14:23:05;;;;;;;22.52;5.00;;;;;;;;;;5043542;28;20789;-73
2023/10/01 14:25:31;;;;;;;22.17;5.45;;;;;;;;;;5031675;28;20413;-74
2023/10/01 14:28:00;;;;;;;20.15;5.47;;;;;;;;;;5030337;28;20411;-73
2023/10/01 14:30:27;;;;;;;21.42;4.90;;;;;;;;;;5031821;28;20465;-73
2023/10/01 14:32:58;;;;;;;19.43;4.77;;;;;;;;;;5030190;28;20423;-73
2023/10/01 14:35:37;;;;;;;21.13;5.30;;;;;;;;;;5030206;28;20431;-73
2023/10/01 14:38:06;;;;;;;23.08;5.00;;;;;;;;;;5032526;28;20415;-74
2023/10/01 14:40:33;;;;;;;20.73;5.30;;;;;;;;;;5046354;28;20831;-74
2023/10/01 14:43:00;;;;;;;20.92;5.43;;;;;;;;;;5030374;28;20426;-74
2023/10/01 14:45:33;;;;;;;22.35;5.32;;;;;;;;;;5031495;28;20403;-74
2023/10/01 14:48:06;;;;;;;22.83;5.50;;;;;;;;;;5033946;28;20445;-74
2023/10/01 14:50:39;;;;;;;22.00;5.25;;;;;;;;;;5046882;28;20403;-73
2023/10/01 14:53:10;;;;;;;23.42;5.43;;;;;;;;;;5031231;28;20477;-74
2023/10/01 14:55:40;;;;;;;21.23;5.10;;;;;;;;;;5030020;28;20502;-74
2023/10/01 14:58:12;;;;;;;21.52;4.95;;;;;;;;;;5046527;28;20410;-74
2023/10/01 15:00:54;;;;;;;21.20;5.07;;;;;;;;;;5031116;28;20442;-74
2023/10/01 15:03:23;;;;;;;21.67;5.75;;;;;;;;;;5041079;28;20449;-73
2023/10/01 15:05:50;;;;;;;22.87;6.23;;;;;;;;;;5030078;28;20442;-73
2023/10/01 15:08:17;;;;;;;20.58;4.97;;;;;;;;;;5031041;28;20411;-73
2023/10/01 15:10:49;;;;;;;20.88;5.03;;;;;;;;;;5031407;28;20414;-72
2023/10/01 15:13:17;;;;;;;19.30;4.80;;;;;;;;;;5029764;28;20409;-71
2023/10/01 15:15:50;;;;;;;20.35;4.40;;;;;;;;;;5026723;28;20457;-74
2023/10/01 15:18:32;;;;;;;21.77;5.30;;;;;;;;;;5030746;28;20453;-73
2023/10/01 15:21:10;;;;;;;20.05;4.80;;;;;;;;;;5033882;28;20414;-73
2023/10/01 15:23:44;;;;;;;21.73;5.60;;;;;;;;;;5031182;28;20434;-73
2023/10/01 15:26:14;;;;;;;20.80;5.60;;;;;;;;;;5031778;28;20460;-73
2023/10/01 15:28:52;;;;;;;22.35;4.85;;;;;;;;;;5037474;28;20827;-74
2023/10/01 15:31:20;;;;;;;21.52;5.25;;;;;;;;;;5030228;28;20435;-81
2023/10/01 15:34:00;;;;;;;22.80;5.45;;;;;;;;;;5029293;28;20514;-77
2023/10/01 15:36:46;;;;;;;22.30;5.70;;;;;;;;;;5028660;28;20434;-81
2023/10/01 15:39:14;;;;;;;19.80;4.75;;;;;;;;;;5031424;28;20419;-77
2023/10/01 15:41:41;;;;;;;21.52;5.90;;;;;;;;;;5031651;28;20406;-79
2023/10/01 15:44:11;;;;;;;20.83;5.57;;;;;;;;;;5028342;28;20467;-73
2023/10/01 15:46:41;;;;;;;23.85;7.00;;;;;;;;;;5031893;28;20419;-75
2023/10/01 15:49:18;;;;;;;22.70;6.35;;;;;;;;;;5030605;28;20867;-72
2023/10/01 15:51:46;;;;;;;24.05;7.78;;;;;;;;;;5030646;28;20411;-74
2023/10/01 15:54:22;;;;;;;23.60;7.37;;;;;;;;;;5030623;28;20442;-73
2023/10/01 15:56:50;;;;;;;24.05;6.68;;;;;;;;;;5027450;28;20522;-75
2023/10/01 15:59:19;;;;;;;22.23;6.25;;;;;;;;;;5018878;28;21261;-74
2023/10/01 16:01:52;;;;;;;20.20;5.32;;;;;;;;;;5045800;28;20407;-73
2023/10/01 16:04:23;;;;;;;21.40;5.97;;;;;;;;;;5027726;28;20419;-78
2023/10/01 16:07:00;;;;;;;20.67;4.90;;;;;;;;;;5033427;28;20424;-79